Time;durP1;ratioP1;P1;durP2;ratioP2;P2;SDS_P1;SDS_P2;PMS_P1;PMS_P2;Temp;Humidity;BMP_temperature;BMP_pressure;BME280_temperature;BME280_humidity;BME280_pressure;Samples;Min_cycle;Max_cycle;Signal;HPM_P1;HPM_P2
2024/03/20 00:00:55;;;;;;;;;20.67;19.00;;;;;12.69;66.12;101599.28;2010777;28;3573176;-77
2024/03/20 00:02:07;;;;;;;;;20.67;19.33;;;;;12.67;66.18;101602.88;2012702;28;3568975;-77
2024/03/20 00:03:18;;;;;;;;;26.33;22.00;;;;;12.64;66.30;101595.06;2016088;28;2845145;-77
2024/03/20 00:04:30;;;;;;;;;21.67;20.67;;;;;12.65;66.49;101609.97;2013924;28;3579410;-77
2024/03/20 00:05:42;;;;;;;;;19.20;18.20;;;;;12.62;66.16;101597.72;2037245;28;3577368;-77
2024/03/20 00:06:54;;;;;;;;;19.33;17.67;;;;;12.60;66.56;101602.19;2001022;28;3563793;-77
2024/03/20 00:08:06;;;;;;;;;25.00;20.00;;;;;12.64;66.45;101610.88;2016743;28;3583584;-77
2024/03/20 00:09:19;;;;;;;;;23.00;18.67;;;;;12.58;66.22;101599.59;2024913;28;3582573;-77
2024/03/20 00:10:31;;;;;;;;;20.67;17.33;;;;;12.60;66.59;101603.06;2015720;28;3574720;-77
2024/03/20 00:11:42;;;;;;;;;16.00;16.00;;;;;12.58;66.28;101604.00;2006919;28;2811822;-77
2024/03/20 00:12:53;;;;;;;;;20.67;19.33;;;;;12.58;66.55;101599.59;2007721;28;3578392;-77
2024/03/20 00:14:05;;;;;;;;;22.00;18.80;;;;;12.58;66.35;101604.88;2027719;28;3574151;-77
2024/03/20 00:15:16;;;;;;;;;14.00;11.00;;;;;12.55;66.07;101604.94;2017041;28;2791938;-77
2024/03/20 00:16:29;;;;;;;;;20.00;18.67;;;;;12.51;66.46;101595.41;2015462;28;3569072;-77
2024/03/20 00:17:41;;;;;;;;;25.67;23.33;;;;;12.49;66.71;101598.06;2003101;28;3588797;-77
2024/03/20 00:18:52;;;;;;;;;21.00;21.00;;;;;12.55;66.32;101617.25;1999893;28;3584642;-77
2024/03/20 00:20:04;;;;;;;;;22.67;20.67;;;;;12.51;66.66;101612.97;2013356;28;3591909;-77
2024/03/20 00:21:17;;;;;;;;;21.60;16.40;;;;;12.48;66.45;101613.94;2026029;28;2839136;-77
2024/03/20 00:22:35;;;;;;;;;19.00;17.33;;;;;12.51;66.76;101620.91;2001413;28;3561691;-77
2024/03/20 00:23:47;;;;;;;;;20.00;17.33;;;;;12.49;66.54;101621.78;2015492;28;3573138;-77
2024/03/20 00:24:58;;;;;;;;;17.00;16.33;;;;;12.42;66.51;101606.19;2015605;28;3559958;-76
2024/03/20 00:26:10;;;;;;;;;21.67;21.00;;;;;12.45;67.10;101614.00;2026608;28;3571100;-77
2024/03/20 00:27:22;;;;;;;;;21.33;19.00;;;;;12.44;66.85;101615.81;2020954;28;3576297;-77
2024/03/20 00:28:34;;;;;;;;;20.67;18.00;;;;;12.46;66.46;101613.97;2011684;28;3570056;-77
2024/03/20 00:29:45;;;;;;;;;22.00;19.00;;;;;12.44;66.81;101609.66;2028487;28;3587720;-77
2024/03/20 00:31:01;;;;;;;;;28.00;21.71;;;;;12.44;66.64;101604.38;2049654;28;2845013;-77
2024/03/20 00:32:12;;;;;;;;;19.50;19.00;;;;;12.42;67.02;101606.19;2006735;28;2835674;-76
2024/03/20 00:33:23;;;;;;;;;22.33;21.00;;;;;12.41;66.78;101604.47;1981426;28;3579918;-77
2024/03/20 00:34:35;;;;;;;;;21.33;19.33;;;;;12.42;66.77;101609.69;2024615;28;3585648;-77
2024/03/20 00:35:47;;;;;;;;;20.00;20.00;;;;;12.40;66.94;101597.44;2024011;28;3564828;-77
2024/03/20 00:36:59;;;;;;;;;21.33;20.00;;;;;12.41;66.87;101596.56;2023665;28;3571076;-77
2024/03/20 00:38:11;;;;;;;;;22.00;18.00;;;;;12.36;67.00;101594.91;2027766;28;3579411;-77
2024/03/20 00:39:23;;;;;;;;;26.00;20.00;;;;;12.36;66.84;101594.91;2022792;28;3598191;-77
2024/03/20 00:40:35;;;;;;;;;27.33;21.00;;;;;12.39;66.83;101593.97;2005734;28;3583568;-77
2024/03/20 00:41:46;;;;;;;;;23.20;20.20;;;;;12.38;66.88;101598.38;2021598;28;3581453;-77
2024/03/20 00:42:58;;;;;;;;;23.00;20.60;;;;;12.34;66.97;101591.47;2010162;28;3563738;-77
2024/03/20 00:44:10;;;;;;;;;18.67;16.67;;;;;12.36;67.04;101594.03;2033303;28;2829510;-77
2024/03/20 00:45:21;;;;;;;;;24.50;19.00;;;;;12.33;66.96;101594.97;2001585;28;2851315;-77
2024/03/20 00:46:33;;;;;;;;;23.00;19.40;;;;;12.28;66.84;101588.97;2001762;28;3586670;-77
2024/03/20 00:47:44;;;;;;;;;20.60;18.60;;;;;12.34;67.12;101602.00;2019375;28;3563759;-77
2024/03/20 00:48:56;;;;;;;;;23.00;20.33;;;;;12.34;67.15;101604.63;2019247;28;3589839;-77
2024/03/20 00:50:08;;;;;;;;;24.00;21.67;;;;;12.32;67.19;101602.94;2024692;28;3578373;-77
2024/03/20 00:51:19;;;;;;;;;16.50;14.50;;;;;12.26;67.04;101594.28;2012958;28;2800268;-77
2024/03/20 00:52:31;;;;;;;;;21.00;17.33;;;;;12.27;67.05;101596.00;2003740;28;3575197;-77
2024/03/20 00:53:43;;;;;;;;;18.67;17.00;;;;;12.26;66.65;101598.69;2024523;28;3563783;-77
2024/03/20 00:54:55;;;;;;;;;23.00;20.67;;;;;12.29;67.02;101597.75;2025200;28;3591901;-77
2024/03/20 00:56:07;;;;;;;;;24.00;20.00;;;;;12.24;66.80;101590.84;2037178;28;3587695;-77
2024/03/20 00:57:19;;;;;;;;;18.67;18.67;;;;;12.24;67.21;101588.19;2007029;28;3577343;-77
2024/03/20 00:58:32;;;;;;;;;23.00;21.00;;;;;12.20;67.11;101589.16;2036037;28;3590176;-77
2024/03/20 00:59:43;;;;;;;;;19.00;19.00;;;;;12.21;66.99;101592.66;1984385;28;3565877;-77
2024/03/20 01:00:55;;;;;;;;;22.00;20.33;;;;;12.24;66.71;101595.22;2023211;28;3579445;-77
2024/03/20 01:02:09;;;;;;;;;21.50;21.50;;;;;12.23;66.96;101593.50;2033883;28;1843017;-77
2024/03/20 01:03:20;;;;;;;;;20.00;18.33;;;;;12.20;67.20;101593.59;1985112;28;3575252;-77
2024/03/20 01:04:33;;;;;;;;;20.00;20.00;;;;;12.22;66.78;101597.06;2024562;28;3575650;-77
2024/03/20 01:05:46;;;;;;;;;20.67;20.00;;;;;12.15;67.35;101589.28;2010709;28;3579843;-77
2024/03/20 01:06:57;;;;;;;;;23.00;19.00;;;;;12.20;67.17;101596.22;2008467;28;3580443;-77
2024/03/20 01:08:09;;;;;;;;;20.67;19.67;;;;;12.15;67.07;101594.56;2028179;28;3577311;-77
2024/03/20 01:09:21;;;;;;;;;18.33;18.00;;;;;12.16;67.27;101590.16;2033584;28;3569379;-77
2024/03/20 01:10:33;;;;;;;;;20.67;19.00;;;;;12.12;67.23;101591.97;2033154;28;3584626;-77
2024/03/20 01:11:45;;;;;;;;;21.33;17.67;;;;;12.15;67.46;101601.59;2024232;28;3574210;-77
2024/03/20 01:12:57;;;;;;;;;20.33;18.33;;;;;12.11;67.03;101592.00;2017288;28;3571062;-77
2024/03/20 01:14:09;;;;;;;;;21.80;21.60;;;;;12.08;67.23;101587.69;2021026;28;3593945;-77
2024/03/20 01:15:21;;;;;;;;;22.67;19.00;;;;;12.09;67.27;101585.91;1994268;28;3569006;-77
2024/03/20 01:16:32;;;;;;;;;22.00;19.67;;;;;12.07;67.31;101585.97;2023389;28;3575279;-77
2024/03/20 01:17:44;;;;;;;;;20.67;20.33;;;;;12.06;67.31;101589.50;2010087;28;3578381;-77
2024/03/20 01:18:56;;;;;;;;;20.33;18.33;;;;;12.03;67.18;101582.53;2007612;28;3576282;-76
2024/03/20 01:20:10;;;;;;;;;23.67;19.00;;;;;12.09;67.17;101593.81;2020442;28;3590881;-77
2024/03/20 01:21:21;;;;;;;;;20.00;18.00;;;;;12.02;67.35;101586.09;2018357;28;2841964;-77
2024/03/20 01:22:35;;;;;;;;;20.67;18.33;;;;;12.07;66.84;101588.59;2003643;28;3566871;-77
2024/03/20 01:23:46;;;;;;;;;22.67;21.33;;;;;12.04;66.91;101583.41;2002615;28;3589779;-77
2024/03/20 01:24:58;;;;;;;;;20.60;20.20;;;;;11.99;67.19;101575.63;2030729;28;3574162;-77
2024/03/20 01:26:10;;;;;;;;;23.33;22.00;;;;;12.02;67.44;101579.94;2032958;28;3577315;-77
2024/03/20 01:27:22;;;;;;;;;27.33;21.67;;;;;12.05;67.31;101595.66;2024549;28;3597122;-77
2024/03/20 01:28:34;;;;;;;;;21.00;18.67;;;;;12.01;67.47;101588.75;2031090;28;3579761;-77
2024/03/20 01:29:46;;;;;;;;;23.33;21.00;;;;;12.04;67.54;101588.69;2032753;28;3575236;-77
2024/03/20 01:30:58;;;;;;;;;24.00;20.00;;;;;11.97;67.24;101580.06;2032943;28;3586745;-77
2024/03/20 01:32:10;;;;;;;;;19.33;19.33;;;;;12.03;67.32;101592.19;2031724;28;3566896;-77
2024/03/20 01:33:22;;;;;;;;;24.33;22.00;;;;;12.02;67.43;101590.50;2016579;28;3579415;-77
2024/03/20 01:34:33;;;;;;;;;23.00;20.60;;;;;12.01;67.44;101601.91;2013729;28;3587723;-77
2024/03/20 01:35:45;;;;;;;;;23.00;21.00;;;;;11.99;67.38;101595.81;2001198;28;3563799;-77
2024/03/20 01:36:56;;;;;;;;;18.50;16.00;;;;;11.99;67.22;101599.34;2017137;28;2833584;-77
2024/03/20 01:38:08;;;;;;;;;24.00;20.67;;;;;11.98;67.20;101602.88;2003243;28;3577292;-77
2024/03/20 01:39:20;;;;;;;;;21.67;18.33;;;;;11.95;67.50;101595.03;2030806;28;3571105;-77
2024/03/20 01:40:32;;;;;;;;;26.00;19.00;;;;;11.96;67.42;101602.03;2016757;28;3596091;-77
2024/03/20 01:41:45;;;;;;;;;17.17;17.17;;;;;11.91;67.51;101590.75;2046258;28;2830427;-77
2024/03/20 01:42:57;;;;;;;;;23.67;22.00;;;;;11.93;67.38;101594.19;1995787;28;3585641;-77
2024/03/20 01:44:11;;;;;;;;;28.33;21.33;;;;;11.95;67.33;101602.09;2016476;28;3599196;-77
2024/03/20 01:45:22;;;;;;;;;28.00;22.33;;;;;11.92;67.52;101590.72;1992644;28;3585687;-76
2024/03/20 01:46:34;;;;;;;;;20.60;18.00;;;;;11.91;67.71;101598.66;2036792;28;3558589;-76
2024/03/20 01:47:46;;;;;;;;;24.33;20.33;;;;;11.88;67.53;101591.69;2014131;28;3572166;-76
2024/03/20 01:48:59;;;;;;;;;18.33;15.67;;;;;11.90;67.76;101591.66;2014697;28;2827464;-76
2024/03/20 01:50:11;;;;;;;;;24.00;18.67;;;;;11.92;67.46;101601.25;2009058;28;3568967;-77
2024/03/20 01:51:25;;;;;;;;;19.17;15.50;;;;;11.88;67.42;101594.31;2046016;28;1835725;-77
2024/03/20 01:52:53;;;;;;;;;23.00;16.00;;;;;11.87;67.54;101586.47;1984954;28;2856534;-77
2024/03/20 01:54:04;;;;;;;;;27.00;25.00;;;;;11.88;67.71;101589.06;1983506;28;3573196;-76
2024/03/20 01:55:19;;;;;;;;;24.67;21.00;;;;;11.85;67.77;101591.78;2029813;28;3587742;-77
2024/03/20 01:56:35;;;;;;;;;22.67;21.00;;;;;11.87;67.53;101589.97;2015169;28;3586706;-77
2024/03/20 01:57:48;;;;;;;;;22.00;22.00;;;;;11.88;67.55;101594.31;2016384;28;3572554;-77
2024/03/20 01:58:58;;;;;;;;;22.00;20.00;;;;;11.85;67.46;101591.78;2018011;28;2836723;-77
2024/03/20 02:00:13;;;;;;;;;23.67;21.67;;;;;11.85;67.60;101598.81;2029278;28;3564819;-77
2024/03/20 02:01:25;;;;;;;;;27.67;22.67;;;;;11.85;67.65;101594.41;2015601;28;3601956;-77
2024/03/20 02:02:37;;;;;;;;;24.33;19.00;;;;;11.82;67.54;101591.84;1997035;28;3585673;-77
2024/03/20 02:03:49;;;;;;;;;20.67;17.67;;;;;11.84;67.67;101592.69;2004039;28;3571181;-77
2024/03/20 02:05:00;;;;;;;;;22.33;19.33;;;;;11.81;67.61;101590.97;2030256;28;3582512;-77
2024/03/20 02:06:22;;;;;;;;;24.00;21.33;;;;;11.78;67.58;101590.19;2032463;28;3581597;-77
2024/03/20 02:07:35;;;;;;;;;24.67;21.50;;;;;11.79;67.53;101594.56;2034848;28;2853469;-77
2024/03/20 02:08:48;;;;;;;;;22.33;22.33;;;;;11.78;67.85;101588.41;2002887;28;3592943;-77
2024/03/20 02:09:59;;;;;;;;;20.00;19.00;;;;;11.78;68.07;101598.94;2008765;28;3577799;-77
2024/03/20 02:11:11;;;;;;;;;23.40;22.60;;;;;11.75;67.62;101587.63;2027725;28;3577315;-77
2024/03/20 02:12:23;;;;;;;;;22.00;19.80;;;;;11.78;67.57;101593.69;2022242;28;3568962;-76
2024/03/20 02:13:43;;;;;;;;;20.60;19.80;;;;;11.79;67.75;101595.44;2030120;28;3582004;-77
2024/03/20 02:14:55;;;;;;;;;21.67;20.00;;;;;11.79;67.64;101594.56;1990082;28;3582514;-77
2024/03/20 02:16:07;;;;;;;;;29.00;20.33;;;;;11.74;67.54;101585.91;2023306;28;3589823;-77
2024/03/20 02:17:19;;;;;;;;;23.00;20.00;;;;;11.73;67.80;101589.44;2008259;28;3585668;-77
2024/03/20 02:18:30;;;;;;;;;26.33;22.33;;;;;11.73;67.72;101592.09;2028344;28;3599181;-77
2024/03/20 02:19:42;;;;;;;;;24.67;22.00;;;;;11.73;67.64;101589.44;2008647;28;3583569;-77
2024/03/20 02:20:54;;;;;;;;;23.33;21.67;;;;;11.69;67.89;101589.50;2022251;28;3579407;-77
2024/03/20 02:22:06;;;;;;;;;19.00;18.33;;;;;11.72;68.10;101592.97;2016938;28;3575225;-77
2024/03/20 02:23:17;;;;;;;;;17.50;17.00;;;;;11.69;68.02;101594.78;2022658;28;2816925;-77
2024/03/20 02:24:29;;;;;;;;;22.00;20.67;;;;;11.72;67.94;101595.59;2027126;28;3564804;-77
2024/03/20 02:25:41;;;;;;;;;26.33;21.00;;;;;11.68;68.02;101589.56;2026360;28;3577306;-77
2024/03/20 02:26:53;;;;;;;;;21.00;20.33;;;;;11.70;67.93;101596.50;2028673;28;3579422;-77
2024/03/20 02:28:05;;;;;;;;;20.67;19.00;;;;;11.64;67.82;101586.13;2031526;28;3564843;-77
2024/03/20 02:29:16;;;;;;;;;24.00;21.00;;;;;11.65;67.75;101587.00;2027841;28;3574207;-76
2024/03/20 02:30:29;;;;;;;;;23.00;20.00;;;;;11.68;67.95;101586.94;2032643;28;3587724;-77
2024/03/20 02:31:39;;;;;;;;;26.50;25.00;;;;;11.63;68.14;101583.53;2005340;28;2853385;-77
2024/03/20 02:32:51;;;;;;;;;20.67;18.67;;;;;11.67;67.79;101593.09;1996770;28;3576226;-76
2024/03/20 02:34:03;;;;;;;;;18.00;16.60;;;;;11.64;67.95;101586.13;2029518;28;3558555;-77
2024/03/20 02:35:16;;;;;;;;;25.00;21.00;;;;;11.65;68.00;101594.91;2029582;28;3600266;-77
2024/03/20 02:36:27;;;;;;;;;22.00;20.00;;;;;11.65;68.13;101589.63;2010791;28;3585621;-77
2024/03/20 02:37:39;;;;;;;;;17.33;17.33;;;;;11.63;67.89;101584.38;2031353;28;3571059;-77
2024/03/20 02:38:51;;;;;;;;;19.67;19.00;;;;;11.66;67.91;101589.56;2016633;28;3576639;-77
2024/03/20 02:40:05;;;;;;;;;27.40;24.00;;;;;11.64;67.92;101591.38;2023844;28;3582505;-77
2024/03/20 02:41:17;;;;;;;;;24.00;18.00;;;;;11.58;68.03;101584.50;2016337;28;3583540;-77
2024/03/20 02:42:29;;;;;;;;;23.00;21.67;;;;;11.62;67.96;101600.22;2005399;28;3581485;-77
2024/03/20 02:43:41;;;;;;;;;21.60;19.00;;;;;11.63;68.18;101599.34;2020886;28;3579367;-77
2024/03/20 02:44:53;;;;;;;;;25.67;23.00;;;;;11.60;68.25;101600.28;1996484;28;3589834;-77
2024/03/20 02:46:04;;;;;;;;;20.40;19.80;;;;;11.61;67.80;101601.97;2033824;28;1849272;-77
2024/03/20 02:47:16;;;;;;;;;27.67;24.67;;;;;11.63;67.97;101605.44;2015399;28;3584631;-77
2024/03/20 02:48:28;;;;;;;;;21.80;18.80;;;;;11.56;68.19;101588.94;2020419;28;3571019;-77
2024/03/20 02:49:40;;;;;;;;;25.40;21.80;;;;;11.57;68.01;101595.94;2030274;28;3582476;-77
2024/03/20 02:50:52;;;;;;;;;25.33;22.33;;;;;11.59;68.16;101593.25;2024650;28;3583017;-77
2024/03/20 02:52:04;;;;;;;;;24.33;20.00;;;;;11.58;68.25;101600.28;2011346;28;3579425;-77
2024/03/20 02:53:15;;;;;;;;;29.00;23.00;;;;;11.55;68.11;101594.25;2013593;28;3582543;-77
2024/03/20 02:54:27;;;;;;;;;23.80;22.40;;;;;11.60;68.00;101602.91;2022353;28;3586649;-76
2024/03/20 02:55:41;;;;;;;;;15.00;14.50;;;;;11.62;67.94;101609.00;2013706;28;2808608;-77
2024/03/20 02:56:53;;;;;;;;;27.00;22.00;;;;;11.57;68.11;101600.34;1984791;28;3571080;-77
2024/03/20 02:58:05;;;;;;;;;19.60;17.20;;;;;11.62;68.23;101605.50;2032336;28;1829491;-77
2024/03/20 02:59:16;;;;;;;;;22.33;19.33;;;;;11.57;68.26;101597.69;2008693;28;3567972;-77
2024/03/20 03:00:29;;;;;;;;;32.33;24.00;;;;;11.58;68.29;101597.66;2031664;28;3598155;-77
2024/03/20 03:01:41;;;;;;;;;22.00;20.00;;;;;11.55;68.42;101594.25;2015952;28;3580453;-77
2024/03/20 03:02:56;;;;;;;;;20.67;20.33;;;;;11.58;68.29;101596.81;2019801;28;3585671;-77
2024/03/20 03:04:09;;;;;;;;;22.17;21.17;;;;;11.58;68.08;101602.09;2020524;28;2845010;-77
2024/03/20 03:05:25;;;;;;;;;25.00;22.00;;;;;11.57;68.12;101602.97;2013651;28;3578341;-77
2024/03/20 03:06:37;;;;;;;;;27.33;23.00;;;;;11.54;68.26;101596.00;2015341;28;3579401;-77
2024/03/20 03:07:49;;;;;;;;;24.00;21.00;;;;;11.48;67.86;101577.72;2032749;28;3589814;-77
2024/03/20 03:09:00;;;;;;;;;21.00;21.00;;;;;11.51;68.50;101587.31;1999888;28;3585664;-77
2024/03/20 03:10:14;;;;;;;;;22.60;20.00;;;;;11.50;68.25;101582.94;2035754;28;3566875;-77
2024/03/20 03:11:27;;;;;;;;;22.33;18.00;;;;;11.56;68.17;101598.59;2007403;28;3579363;-77
2024/03/20 03:12:38;;;;;;;;;19.67;17.67;;;;;11.52;68.23;101581.16;2006471;28;3573129;-77
2024/03/20 03:13:50;;;;;;;;;26.33;23.00;;;;;11.52;68.22;101587.28;2016882;28;3578396;-77
2024/03/20 03:15:02;;;;;;;;;22.00;21.00;;;;;11.51;68.56;101579.44;2016973;28;3579879;-77
2024/03/20 03:16:14;;;;;;;;;20.00;20.00;;;;;11.49;68.27;101576.81;2008552;28;3569501;-77
2024/03/20 03:17:25;;;;;;;;;19.67;19.00;;;;;11.52;68.46;101586.41;2024004;28;3572127;-77
2024/03/20 03:18:38;;;;;;;;;23.00;23.00;;;;;11.47;68.30;101573.34;2032580;28;3576296;-77
2024/03/20 03:19:48;;;;;;;;;23.00;23.00;;;;;11.51;68.25;101579.44;2008737;28;2850264;-77
2024/03/20 03:21:00;;;;;;;;;25.67;24.00;;;;;11.48;68.18;101581.19;1985683;28;3587709;-77
2024/03/20 03:22:12;;;;;;;;;22.00;18.00;;;;;11.51;68.41;101582.91;2023792;28;3571822;-77
2024/03/20 03:23:24;;;;;;;;;24.20;18.20;;;;;11.50;68.30;101578.56;2041141;28;1850288;-77
2024/03/20 03:24:35;;;;;;;;;24.00;23.00;;;;;11.46;68.33;101574.25;2016064;28;2850304;-77
2024/03/20 03:25:46;;;;;;;;;23.60;23.00;;;;;11.48;67.98;101575.94;2008471;28;3582519;-77
2024/03/20 03:26:59;;;;;;;;;20.00;20.00;;;;;11.47;68.03;101576.88;2031739;28;3575240;-77
2024/03/20 03:28:10;;;;;;;;;21.33;20.00;;;;;11.48;68.09;101578.56;2026711;28;3585666;-77
2024/03/20 03:29:22;;;;;;;;;23.67;21.33;;;;;11.42;68.40;101573.47;2032516;28;3591899;-76
2024/03/20 03:30:34;;;;;;;;;20.67;20.33;;;;;11.40;68.30;101567.38;2021588;28;3573168;-76
2024/03/20 03:31:47;;;;;;;;;25.00;23.67;;;;;11.47;68.36;101581.25;2024660;28;3581530;-77
2024/03/20 03:32:59;;;;;;;;;27.33;24.33;;;;;11.50;68.59;101577.69;2012261;28;3597101;-77
2024/03/20 03:34:11;;;;;;;;;29.00;23.67;;;;;11.45;68.38;101570.78;1999363;28;3601307;-77
2024/03/20 03:35:22;;;;;;;;;25.00;23.67;;;;;11.45;68.38;101573.41;1984788;28;3582596;-77
2024/03/20 03:36:34;;;;;;;;;25.40;22.20;;;;;11.44;68.30;101574.28;2032411;28;3592936;-77
2024/03/20 03:37:46;;;;;;;;;23.00;22.67;;;;;11.44;68.36;101574.28;2000972;28;3570045;-77
2024/03/20 03:38:58;;;;;;;;;25.80;23.40;;;;;11.41;68.40;101563.81;2025389;28;3576230;-77
2024/03/20 03:40:11;;;;;;;;;30.20;24.00;;;;;11.43;68.47;101567.28;2026774;28;3593945;-77
2024/03/20 03:41:22;;;;;;;;;26.60;23.00;;;;;11.45;68.68;101573.41;2000179;28;3593941;-77
2024/03/20 03:42:34;;;;;;;;;22.33;19.67;;;;;11.40;68.62;101559.47;2008061;28;3589815;-77
2024/03/20 03:43:46;;;;;;;;;29.40;25.40;;;;;11.42;68.46;101562.94;2013054;28;3600211;-76
2024/03/20 03:44:59;;;;;;;;;25.60;23.80;;;;;11.43;68.53;101569.06;2006026;28;3585605;-77
2024/03/20 03:46:11;;;;;;;;;22.00;21.67;;;;;11.42;68.40;101565.56;1989691;28;3585659;-77
2024/03/20 03:47:23;;;;;;;;;25.00;19.00;;;;;11.34;68.24;101556.97;2028268;28;3588734;-77
2024/03/20 03:48:35;;;;;;;;;25.60;22.80;;;;;11.44;68.45;101568.16;1997975;28;3576305;-77
2024/03/20 03:49:47;;;;;;;;;30.00;28.00;;;;;11.44;68.49;101563.75;2017591;28;3604429;-77
2024/03/20 03:50:58;;;;;;;;;25.60;23.60;;;;;11.42;68.53;101565.56;1988775;28;3588756;-77
2024/03/20 03:52:10;;;;;;;;;25.80;24.60;;;;;11.43;68.60;101566.44;2004395;28;3588765;-77
2024/03/20 03:53:22;;;;;;;;;27.20;22.80;;;;;11.39;68.39;101560.38;2004069;28;3585601;-77
2024/03/20 03:54:34;;;;;;;;;26.00;25.40;;;;;11.32;68.52;101549.13;2008944;28;3595026;-77
2024/03/20 03:55:46;;;;;;;;;25.33;23.00;;;;;11.39;68.50;101560.38;2004621;28;3579451;-77
2024/03/20 03:57:00;;;;;;;;;26.40;26.40;;;;;11.42;68.48;101565.56;2028167;28;3584571;-77
2024/03/20 03:58:12;;;;;;;;;25.00;22.33;;;;;11.40;68.65;101564.75;1982537;28;3578425;-77
2024/03/20 03:59:22;;;;;;;;;26.50;24.00;;;;;11.37;68.56;101556.91;2009363;28;2857508;-77
2024/03/20 04:00:35;;;;;;;;;25.00;21.20;;;;;11.42;68.72;101569.97;2010378;28;3596105;-77
2024/03/20 04:01:47;;;;;;;;;31.67;26.00;;;;;11.40;68.53;101567.38;1981795;28;3615879;-77
2024/03/20 04:02:58;;;;;;;;;27.00;22.40;;;;;11.42;68.69;101565.56;1986778;28;3579360;-77
2024/03/20 04:04:10;;;;;;;;;27.00;23.00;;;;;11.38;68.47;101556.03;2015469;28;3591921;-77
2024/03/20 04:05:23;;;;;;;;;27.67;24.00;;;;;11.36;68.46;101555.16;1988984;28;3588801;-77
2024/03/20 04:06:35;;;;;;;;;25.00;22.00;;;;;11.35;68.51;101553.44;2000245;28;3589814;-77
2024/03/20 04:07:46;;;;;;;;;27.33;26.67;;;;;11.39;68.55;101556.88;2019399;28;3607565;-77
2024/03/20 04:08:58;;;;;;;;;31.00;28.20;;;;;11.40;68.45;101562.13;2006098;28;3605750;-77
2024/03/20 04:10:10;;;;;;;;;29.33;27.67;;;;;11.34;68.57;101549.94;2000959;28;3612734;-77
2024/03/20 04:11:23;;;;;;;;;32.00;24.33;;;;;11.37;68.65;101554.28;2008890;28;3598150;-77
2024/03/20 04:12:34;;;;;;;;;27.50;25.00;;;;;11.35;68.61;101551.69;2005227;28;2864879;-77
2024/03/20 04:13:46;;;;;;;;;25.40;24.00;;;;;11.36;68.72;101555.16;2001515;28;3596033;-77
2024/03/20 04:14:58;;;;;;;;;31.00;28.33;;;;;11.34;68.54;101549.06;2014685;28;3608589;-77
2024/03/20 04:16:10;;;;;;;;;33.60;26.60;;;;;11.39;68.81;101554.22;2010467;28;3631436;-77
2024/03/20 04:17:22;;;;;;;;;38.40;31.20;;;;;11.31;68.67;101541.28;2011219;28;3592907;-77
2024/03/20 04:18:34;;;;;;;;;29.00;27.00;;;;;11.36;68.79;101560.44;2012141;28;3608564;-77
2024/03/20 04:19:46;;;;;;;;;32.80;26.80;;;;;11.29;68.85;101533.41;2000872;28;3608655;-77
2024/03/20 04:20:58;;;;;;;;;34.00;30.40;;;;;11.35;68.81;101551.69;1999191;28;3602314;-77
2024/03/20 04:22:10;;;;;;;;;29.60;27.20;;;;;11.36;68.85;101548.16;2005535;28;3599149;-77
2024/03/20 04:23:23;;;;;;;;;36.20;30.00;;;;;11.34;68.87;101543.81;2004537;28;3606453;-77
2024/03/20 04:24:34;;;;;;;;;29.00;27.67;;;;;11.37;68.83;101549.00;1990540;28;3593007;-77
2024/03/20 04:25:46;;;;;;;;;24.60;24.60;;;;;11.33;68.90;101544.72;2029818;28;3585620;-77
2024/03/20 04:26:58;;;;;;;;;33.20;26.60;;;;;11.34;68.58;101544.69;1999174;28;3612775;-77
2024/03/20 04:28:10;;;;;;;;;34.50;27.50;;;;;11.32;68.91;101540.34;1987749;28;2862768;-77
2024/03/20 04:29:21;;;;;;;;;24.00;23.33;;;;;11.33;68.77;101547.38;1984733;28;3581477;-77
2024/03/20 04:30:34;;;;;;;;;30.00;24.00;;;;;11.33;68.94;101550.84;2022659;28;3612761;-77
2024/03/20 04:31:45;;;;;;;;;29.80;27.40;;;;;11.35;68.57;101551.69;1994912;28;3609589;-77
2024/03/20 04:32:57;;;;;;;;;29.00;27.67;;;;;11.32;68.89;101554.38;1992318;28;3604418;-77
2024/03/20 04:34:09;;;;;;;;;36.60;31.20;;;;;11.34;68.72;101556.97;1992218;28;3598096;-77
2024/03/20 04:35:21;;;;;;;;;35.80;28.00;;;;;11.34;68.84;101562.25;2007082;28;3621023;-77
2024/03/20 04:36:33;;;;;;;;;30.00;26.33;;;;;11.30;68.76;101557.97;2005078;28;3606480;-77
2024/03/20 04:37:45;;;;;;;;;32.80;29.60;;;;;11.30;68.74;101552.69;2000389;28;3575225;-77
2024/03/20 04:38:57;;;;;;;;;37.00;30.00;;;;;11.30;69.15;101557.97;2030086;28;3602338;-77
2024/03/20 04:40:09;;;;;;;;;35.80;30.00;;;;;11.33;68.91;101557.88;2004049;28;3603303;-77
2024/03/20 04:41:25;;;;;;;;;34.40;29.40;;;;;11.32;68.58;101561.41;1998210;28;3599153;-77
2024/03/20 04:42:36;;;;;;;;;36.00;29.00;;;;;11.27;68.72;101555.38;1981119;28;2849176;-77
2024/03/20 04:43:51;;;;;;;;;40.00;28.80;;;;;11.31;68.89;101559.69;2004182;28;3621052;-77
2024/03/20 04:45:03;;;;;;;;;29.50;29.50;;;;;11.25;68.77;101548.41;1985724;28;2847092;-77
2024/03/20 04:46:13;;;;;;;;;32.00;27.00;;;;;11.29;68.93;101557.09;1977207;28;2859599;-77
2024/03/20 04:47:25;;;;;;;;;31.40;27.60;;;;;11.31;69.01;101559.69;1990773;28;3585647;-77
2024/03/20 04:48:37;;;;;;;;;34.40;30.00;;;;;11.28;68.91;101557.13;1986360;28;3601304;-77
2024/03/20 04:49:49;;;;;;;;;34.60;31.80;;;;;11.27;68.93;101556.25;2005582;28;3610616;-77
2024/03/20 04:51:01;;;;;;;;;33.80;30.40;;;;;11.27;68.85;101555.38;2011070;28;3585605;-77
2024/03/20 04:52:13;;;;;;;;;39.20;31.00;;;;;11.29;68.96;101564.09;2011087;28;3615254;-77
2024/03/20 04:53:25;;;;;;;;;34.80;30.40;;;;;11.27;68.68;101561.53;2005323;28;3603328;-77
2024/03/20 04:54:37;;;;;;;;;33.67;29.33;;;;;11.26;68.91;101557.13;1989639;28;3597110;-77
2024/03/20 04:55:49;;;;;;;;;33.20;30.00;;;;;11.25;68.74;101558.94;1998036;28;3597095;-77
2024/03/20 04:57:01;;;;;;;;;38.40;30.40;;;;;11.21;68.88;101551.16;2002204;28;3608540;-77
2024/03/20 04:58:13;;;;;;;;;32.60;29.60;;;;;11.23;68.94;101557.22;2005401;28;3607479;-77
2024/03/20 04:59:25;;;;;;;;;36.20;31.20;;;;;11.23;68.75;101557.22;2003522;28;3610616;-77
2024/03/20 05:00:37;;;;;;;;;36.80;30.20;;;;;11.20;68.79;101555.53;1998882;28;3599158;-77
2024/03/20 05:01:49;;;;;;;;;33.20;30.20;;;;;11.24;69.04;101559.81;1997771;28;3592955;-77
2024/03/20 05:03:02;;;;;;;;;35.40;30.00;;;;;11.19;68.95;101552.91;1993259;28;3597059;-77
2024/03/20 05:04:12;;;;;;;;;35.50;30.00;;;;;11.20;68.81;101549.41;1986189;28;2849176;-77
2024/03/20 05:05:24;;;;;;;;;31.00;30.00;;;;;11.17;68.69;101552.97;2005655;28;3588750;-77
2024/03/20 05:06:36;;;;;;;;;37.40;30.80;;;;;11.18;68.99;101553.84;1995572;28;3606530;-77
2024/03/20 05:07:48;;;;;;;;;29.60;26.60;;;;;11.21;68.92;101562.50;2002890;28;3597125;-77
2024/03/20 05:09:00;;;;;;;;;31.20;29.20;;;;;11.21;68.81;101556.41;2011103;28;3596013;-77
2024/03/20 05:10:12;;;;;;;;;32.20;26.80;;;;;11.21;68.95;101557.25;1990171;28;3613724;-77
2024/03/20 05:11:24;;;;;;;;;32.80;24.80;;;;;11.18;68.58;101559.97;1994958;28;3623096;-77
2024/03/20 05:12:36;;;;;;;;;29.80;26.60;;;;;11.19;68.76;101561.69;1992557;28;3597075;-77
2024/03/20 05:13:48;;;;;;;;;31.00;26.33;;;;;11.20;68.87;101555.53;1991512;28;3604401;-77
2024/03/20 05:15:00;;;;;;;;;35.20;29.00;;;;;11.16;68.94;101553.84;1995546;28;3609566;-77
2024/03/20 05:16:12;;;;;;;;;31.00;26.33;;;;;11.20;69.10;101565.19;1985526;28;3609052;-77
2024/03/20 05:17:24;;;;;;;;;32.20;29.20;;;;;11.21;68.85;101561.66;2004442;28;3605396;-77
2024/03/20 05:18:36;;;;;;;;;27.60;24.80;;;;;11.21;68.92;101561.66;2004983;28;3602283;-77
2024/03/20 05:19:48;;;;;;;;;28.00;25.67;;;;;11.16;68.84;101556.47;1984068;28;3591911;-77
2024/03/20 05:21:00;;;;;;;;;31.80;27.40;;;;;11.22;68.60;101566.00;1996019;28;3596013;-77